createdAt,value
2017-08-29T19:04:47.974Z,27.67
2017-08-29T19:07:17.119Z,36.77
2017-08-29T19:09:46.630Z,32.47
2017-08-29T19:12:17.222Z,27.63
2017-08-29T19:14:45.908Z,35.00
2017-08-29T19:17:15.601Z,37.10
2017-08-29T19:19:45.698Z,30.03
2017-08-29T19:22:14.388Z,32.00
2017-08-29T19:24:44.090Z,37.40
2017-08-29T19:27:12.769Z,33.60
2017-08-29T19:29:41.450Z,34.30
2017-08-29T19:32:12.054Z,36.20
2017-08-29T19:34:41.679Z,36.90
2017-08-29T19:37:10.333Z,44.43
2017-08-29T19:39:39.095Z,35.30
2017-08-29T19:42:07.782Z,36.97
2017-08-29T19:44:38.472Z,38.23
2017-08-29T19:47:08.054Z,36.50
2017-08-29T19:49:36.765Z,36.57
2017-08-29T19:52:05.430Z,34.03
2017-08-29T19:54:34.129Z,36.50
2017-08-29T19:57:03.714Z,41.60
2017-08-29T19:59:32.428Z,38.47
2017-08-29T20:02:02.134Z,35.80
2017-08-29T20:04:31.746Z,36.70
2017-08-29T20:07:01.128Z,42.63
2017-08-29T20:09:29.815Z,35.70
2017-08-29T20:11:59.545Z,36.00
2017-08-29T20:14:30.188Z,36.17
2017-08-29T20:16:58.878Z,43.67
2017-08-29T20:19:29.560Z,42.20
2017-08-29T20:22:00.986Z,42.17
2017-08-29T20:24:32.999Z,44.53
2017-08-29T20:27:01.725Z,42.70
2017-08-29T20:29:34.841Z,42.03
2017-08-29T20:32:03.574Z,46.53
2017-08-29T20:34:37.004Z,39.03
2017-08-29T20:37:05.700Z,37.67
2017-08-29T20:39:36.092Z,38.77
2017-08-29T20:42:04.766Z,44.87
2017-08-29T20:44:33.453Z,44.70
2017-08-29T20:47:02.159Z,44.57
2017-08-29T20:49:30.849Z,37.00
2017-08-29T20:51:59.564Z,37.63
2017-08-29T20:54:28.314Z,37.37
2017-08-29T20:56:56.991Z,39.37
2017-08-29T20:59:25.690Z,42.87
2017-08-29T21:01:56.285Z,46.90
2017-08-29T21:04:24.966Z,43.17
2017-08-29T21:06:53.647Z,37.90
2017-08-29T21:09:22.328Z,38.80
2017-08-29T21:11:51.935Z,37.03
2017-08-29T21:14:25.899Z,38.93
2017-08-29T21:16:55.577Z,35.13
2017-08-29T21:19:24.299Z,37.00
2017-08-29T21:21:52.985Z,41.63
2017-08-29T21:24:22.606Z,36.27
2017-08-29T21:26:53.338Z,36.30
2017-08-29T21:29:22.038Z,37.43
2017-08-29T21:31:50.693Z,44.90
2017-08-29T21:34:19.464Z,45.63
2017-08-29T21:36:48.138Z,43.33
2017-08-29T21:39:16.838Z,42.60
2017-08-29T21:41:46.510Z,42.67
2017-08-29T21:44:16.078Z,45.43
2017-08-29T21:46:44.774Z,52.50
2017-08-29T21:49:13.456Z,44.47
2017-08-29T21:51:43.106Z,45.03
2017-08-29T21:54:14.852Z,47.23
2017-08-29T21:56:43.550Z,44.30
2017-08-29T21:59:14.169Z,44.47
2017-08-29T22:01:42.882Z,57.73
2017-08-29T22:04:13.616Z,49.97
2017-08-29T22:06:42.271Z,45.03
2017-08-29T22:09:10.954Z,47.67
2017-08-29T22:11:40.605Z,46.73
2017-08-29T22:14:10.186Z,43.50
2017-08-29T22:16:38.841Z,49.33
2017-08-29T22:19:08.474Z,46.93
2017-08-29T22:21:40.717Z,46.83
2017-08-29T22:24:09.421Z,45.40
2017-08-29T22:26:38.081Z,44.80
2017-08-29T22:29:06.774Z,45.40
2017-08-29T22:31:35.441Z,50.17
2017-08-29T22:34:07.544Z,43.97
2017-08-29T22:36:38.185Z,48.93
2017-08-29T22:39:07.918Z,46.57
2017-08-29T22:41:36.597Z,45.83
2017-08-29T22:44:17.238Z,51.60
2017-08-29T22:46:47.851Z,52.30
2017-08-29T22:49:17.512Z,50.33
2017-08-29T22:51:46.172Z,47.93
2017-08-29T22:54:14.896Z,45.80
2017-08-29T22:56:46.762Z,59.30
2017-08-29T22:59:15.439Z,57.80
2017-08-29T23:01:47.685Z,57.93
2017-08-29T23:04:16.386Z,64.43
2017-08-29T23:06:44.979Z,57.30
2017-08-29T23:09:14.549Z,54.40
2017-08-29T23:11:43.248Z,58.83
2017-08-29T23:14:11.909Z,57.37
2017-08-29T23:19:22.848Z,66.47
2017-08-29T23:21:51.589Z,67.20
2017-08-29T23:24:21.295Z,66.33
2017-08-29T23:26:49.954Z,67.43
2017-08-29T23:29:20.617Z,61.57
2017-08-29T23:31:49.281Z,73.00
2017-08-29T23:34:17.954Z,60.93
2017-08-29T23:36:46.614Z,61.97
2017-08-29T23:39:15.310Z,61.40
2017-08-29T23:41:44.957Z,59.47
2017-08-29T23:44:13.700Z,56.33
2017-08-29T23:46:44.316Z,61.47
2017-08-29T23:49:18.178Z,58.20
2017-08-29T23:51:46.833Z,56.27
2017-08-29T23:54:15.515Z,68.53
2017-08-29T23:56:50.489Z,61.03
2017-08-29T23:59:19.175Z,57.57
